sensor_id;sensor_type;location;lat;lon;timestamp;P1;durP1;ratioP1;P2;durP2;ratioP2
2123;SDS011;1068;52.460;13.528;2023-08-17T00:01:45;4.00;;;2.40;;
2123;SDS011;1068;52.460;13.528;2023-08-17T00:04:13;3.40;;;2.30;;
2123;SDS011;1068;52.460;13.528;2023-08-17T00:06:41;6.33;;;2.83;;
2123;SDS011;1068;52.460;13.528;2023-08-17T00:09:08;2.10;;;2.00;;
2123;SDS011;1068;52.460;13.528;2023-08-17T00:11:35;3.20;;;2.57;;
2123;SDS011;1068;52.460;13.528;2023-08-17T00:14:04;2.80;;;2.57;;
2123;SDS011;1068;52.460;13.528;2023-08-17T00:16:33;2.87;;;2.67;;
2123;SDS011;1068;52.460;13.528;2023-08-17T00:19:00;4.40;;;2.77;;
2123;SDS011;1068;52.460;13.528;2023-08-17T00:21:28;2.33;;;2.10;;
2123;SDS011;1068;52.460;13.528;2023-08-17T00:23:55;2.50;;;2.30;;
2123;SDS011;1068;52.460;13.528;2023-08-17T00:26:24;2.73;;;2.50;;
2123;SDS011;1068;52.460;13.528;2023-08-17T00:28:51;3.30;;;2.47;;
2123;SDS011;1068;52.460;13.528;2023-08-17T00:31:18;2.93;;;2.73;;
2123;SDS011;1068;52.460;13.528;2023-08-17T00:33:44;3.33;;;2.67;;
2123;SDS011;1068;52.460;13.528;2023-08-17T00:36:13;4.67;;;3.03;;
2123;SDS011;1068;52.460;13.528;2023-08-17T00:38:42;4.43;;;2.53;;
2123;SDS011;1068;52.460;13.528;2023-08-17T00:41:08;3.17;;;2.40;;
2123;SDS011;1068;52.460;13.528;2023-08-17T00:43:35;2.87;;;2.67;;
2123;SDS011;1068;52.460;13.528;2023-08-17T00:46:02;3.87;;;2.43;;
2123;SDS011;1068;52.460;13.528;2023-08-17T00:48:29;5.80;;;2.50;;
2123;SDS011;1068;52.460;13.528;2023-08-17T00:50:56;3.53;;;2.80;;
2123;SDS011;1068;52.460;13.528;2023-08-17T00:53:24;3.23;;;2.93;;
2123;SDS011;1068;52.460;13.528;2023-08-17T00:55:54;2.80;;;2.60;;
2123;SDS011;1068;52.460;13.528;2023-08-17T00:58:21;6.80;;;2.40;;
2123;SDS011;1068;52.460;13.528;2023-08-17T01:00:48;5.00;;;2.33;;
2123;SDS011;1068;52.460;13.528;2023-08-17T01:03:15;2.93;;;2.50;;
2123;SDS011;1068;52.460;13.528;2023-08-17T01:05:43;3.73;;;2.53;;
2123;SDS011;1068;52.460;13.528;2023-08-17T01:08:10;2.60;;;2.50;;
2123;SDS011;1068;52.460;13.528;2023-08-17T01:10:37;2.83;;;2.63;;
2123;SDS011;1068;52.460;13.528;2023-08-17T01:13:09;2.90;;;2.50;;
2123;SDS011;1068;52.460;13.528;2023-08-17T01:15:36;5.53;;;3.10;;
2123;SDS011;1068;52.460;13.528;2023-08-17T01:18:04;3.00;;;2.80;;
2123;SDS011;1068;52.460;13.528;2023-08-17T01:20:35;4.60;;;2.73;;
2123;SDS011;1068;52.460;13.528;2023-08-17T01:23:06;2.67;;;2.40;;
2123;SDS011;1068;52.460;13.528;2023-08-17T01:25:33;4.73;;;2.60;;
2123;SDS011;1068;52.460;13.528;2023-08-17T01:28:02;3.10;;;2.83;;
2123;SDS011;1068;52.460;13.528;2023-08-17T01:30:30;3.20;;;2.83;;
2123;SDS011;1068;52.460;13.528;2023-08-17T01:33:01;3.03;;;2.47;;
2123;SDS011;1068;52.460;13.528;2023-08-17T01:35:30;3.07;;;2.77;;
2123;SDS011;1068;52.460;13.528;2023-08-17T01:37:59;2.73;;;2.47;;
2123;SDS011;1068;52.460;13.528;2023-08-17T01:40:29;2.60;;;2.50;;
2123;SDS011;1068;52.460;13.528;2023-08-17T01:43:00;6.77;;;3.07;;
2123;SDS011;1068;52.460;13.528;2023-08-17T01:45:27;3.17;;;2.80;;
2123;SDS011;1068;52.460;13.528;2023-08-17T01:47:55;3.87;;;2.70;;
2123;SDS011;1068;52.460;13.528;2023-08-17T01:50:23;5.00;;;2.50;;
2123;SDS011;1068;52.460;13.528;2023-08-17T01:52:50;4.97;;;2.63;;
2123;SDS011;1068;52.460;13.528;2023-08-17T01:55:18;2.60;;;2.40;;
2123;SDS011;1068;52.460;13.528;2023-08-17T01:57:46;3.20;;;2.90;;
2123;SDS011;1068;52.460;13.528;2023-08-17T02:00:14;3.20;;;2.50;;
2123;SDS011;1068;52.460;13.528;2023-08-17T02:02:41;5.30;;;2.80;;
2123;SDS011;1068;52.460;13.528;2023-08-17T02:05:08;6.97;;;3.50;;
2123;SDS011;1068;52.460;13.528;2023-08-17T02:07:35;3.30;;;3.00;;
2123;SDS011;1068;52.460;13.528;2023-08-17T02:10:02;3.03;;;2.53;;
2123;SDS011;1068;52.460;13.528;2023-08-17T02:12:29;3.20;;;2.53;;
2123;SDS011;1068;52.460;13.528;2023-08-17T02:14:57;6.30;;;3.00;;
2123;SDS011;1068;52.460;13.528;2023-08-17T02:17:24;5.10;;;2.57;;
2123;SDS011;1068;52.460;13.528;2023-08-17T02:19:52;4.70;;;2.50;;
2123;SDS011;1068;52.460;13.528;2023-08-17T02:22:19;3.70;;;2.33;;
2123;SDS011;1068;52.460;13.528;2023-08-17T02:24:45;4.50;;;2.67;;
2123;SDS011;1068;52.460;13.528;2023-08-17T02:27:12;2.97;;;2.77;;
2123;SDS011;1068;52.460;13.528;2023-08-17T02:29:39;5.87;;;2.63;;
2123;SDS011;1068;52.460;13.528;2023-08-17T02:32:07;4.40;;;3.63;;
2123;SDS011;1068;52.460;13.528;2023-08-17T02:34:35;5.80;;;2.77;;
2123;SDS011;1068;52.460;13.528;2023-08-17T02:37:02;2.77;;;2.57;;
2123;SDS011;1068;52.460;13.528;2023-08-17T02:39:28;4.50;;;3.13;;
2123;SDS011;1068;52.460;13.528;2023-08-17T02:41:55;4.40;;;2.40;;
2123;SDS011;1068;52.460;13.528;2023-08-17T02:44:22;4.10;;;2.80;;
2123;SDS011;1068;52.460;13.528;2023-08-17T02:46:49;4.70;;;2.77;;
2123;SDS011;1068;52.460;13.528;2023-08-17T02:49:17;6.00;;;2.83;;
2123;SDS011;1068;52.460;13.528;2023-08-17T02:51:45;3.10;;;2.80;;
2123;SDS011;1068;52.460;13.528;2023-08-17T02:54:12;2.60;;;2.40;;
2123;SDS011;1068;52.460;13.528;2023-08-17T02:56:39;5.53;;;3.00;;
2123;SDS011;1068;52.460;13.528;2023-08-17T02:59:05;3.83;;;3.50;;
2123;SDS011;1068;52.460;13.528;2023-08-17T03:01:32;2.27;;;2.07;;
2123;SDS011;1068;52.460;13.528;2023-08-17T03:03:59;3.00;;;2.80;;
2123;SDS011;1068;52.460;13.528;2023-08-17T03:06:27;5.73;;;2.67;;
2123;SDS011;1068;52.460;13.528;2023-08-17T03:08:54;3.00;;;2.70;;
2123;SDS011;1068;52.460;13.528;2023-08-17T03:11:21;3.67;;;3.37;;
2123;SDS011;1068;52.460;13.528;2023-08-17T03:13:48;3.40;;;2.70;;
2123;SDS011;1068;52.460;13.528;2023-08-17T03:16:15;4.43;;;3.03;;
2123;SDS011;1068;52.460;13.528;2023-08-17T03:18:42;3.07;;;2.80;;
2123;SDS011;1068;52.460;13.528;2023-08-17T03:21:09;4.83;;;2.60;;
2123;SDS011;1068;52.460;13.528;2023-08-17T03:23:37;4.20;;;3.00;;
2123;SDS011;1068;52.460;13.528;2023-08-17T03:26:04;4.17;;;2.80;;
2123;SDS011;1068;52.460;13.528;2023-08-17T03:28:31;2.93;;;2.60;;
2123;SDS011;1068;52.460;13.528;2023-08-17T03:30:58;3.00;;;2.60;;
2123;SDS011;1068;52.460;13.528;2023-08-17T03:33:24;4.97;;;2.57;;
2123;SDS011;1068;52.460;13.528;2023-08-17T03:35:51;4.17;;;2.40;;
2123;SDS011;1068;52.460;13.528;2023-08-17T03:38:18;2.93;;;2.70;;
2123;SDS011;1068;52.460;13.528;2023-08-17T03:40:47;7.37;;;2.60;;
2123;SDS011;1068;52.460;13.528;2023-08-17T03:43:14;5.97;;;2.80;;
2123;SDS011;1068;52.460;13.528;2023-08-17T03:45:41;2.60;;;2.40;;
2123;SDS011;1068;52.460;13.528;2023-08-17T03:48:08;2.60;;;2.40;;
2123;SDS011;1068;52.460;13.528;2023-08-17T03:50:35;4.13;;;2.60;;
2123;SDS011;1068;52.460;13.528;2023-08-17T03:53:02;2.83;;;2.63;;
2123;SDS011;1068;52.460;13.528;2023-08-17T03:55:29;2.97;;;2.33;;
2123;SDS011;1068;52.460;13.528;2023-08-17T03:57:58;3.80;;;3.10;;
2123;SDS011;1068;52.460;13.528;2023-08-17T04:00:24;3.87;;;2.70;;
2123;SDS011;1068;52.460;13.528;2023-08-17T04:02:51;2.53;;;2.33;;
2123;SDS011;1068;52.460;13.528;2023-08-17T04:05:18;3.00;;;2.70;;
2123;SDS011;1068;52.460;13.528;2023-08-17T04:07:45;2.80;;;2.60;;
2123;SDS011;1068;52.460;13.528;2023-08-17T04:10:13;4.00;;;3.00;;
2123;SDS011;1068;52.460;13.528;2023-08-17T04:12:40;3.63;;;2.40;;
2123;SDS011;1068;52.460;13.528;2023-08-17T04:15:08;2.60;;;2.40;;
2123;SDS011;1068;52.460;13.528;2023-08-17T04:17:35;4.63;;;2.50;;
2123;SDS011;1068;52.460;13.528;2023-08-17T04:20:01;2.50;;;2.23;;
2123;SDS011;1068;52.460;13.528;2023-08-17T04:22:29;3.37;;;2.50;;
2123;SDS011;1068;52.460;13.528;2023-08-17T04:24:56;3.40;;;2.70;;
2123;SDS011;1068;52.460;13.528;2023-08-17T04:27:23;2.37;;;2.17;;
2123;SDS011;1068;52.460;13.528;2023-08-17T04:29:50;2.70;;;2.40;;
2123;SDS011;1068;52.460;13.528;2023-08-17T04:32:18;9.17;;;3.13;;
2123;SDS011;1068;52.460;13.528;2023-08-17T04:34:45;3.03;;;2.00;;
2123;SDS011;1068;52.460;13.528;2023-08-17T04:37:13;2.97;;;2.67;;
2123;SDS011;1068;52.460;13.528;2023-08-17T04:39:40;2.57;;;2.37;;
2123;SDS011;1068;52.460;13.528;2023-08-17T04:42:08;5.10;;;3.20;;
2123;SDS011;1068;52.460;13.528;2023-08-17T04:44:35;4.40;;;2.23;;
2123;SDS011;1068;52.460;13.528;2023-08-17T04:47:03;7.10;;;2.50;;
2123;SDS011;1068;52.460;13.528;2023-08-17T04:49:31;2.63;;;2.43;;
2123;SDS011;1068;52.460;13.528;2023-08-17T04:51:58;2.87;;;2.27;;
2123;SDS011;1068;52.460;13.528;2023-08-17T04:54:25;4.67;;;2.87;;
2123;SDS011;1068;52.460;13.528;2023-08-17T04:56:52;5.40;;;2.37;;
2123;SDS011;1068;52.460;13.528;2023-08-17T04:59:19;6.47;;;2.47;;
2123;SDS011;1068;52.460;13.528;2023-08-17T05:01:46;2.80;;;2.13;;
2123;SDS011;1068;52.460;13.528;2023-08-17T05:04:12;3.07;;;2.33;;
2123;SDS011;1068;52.460;13.528;2023-08-17T05:06:41;3.67;;;2.43;;
2123;SDS011;1068;52.460;13.528;2023-08-17T05:09:08;2.30;;;2.03;;
2123;SDS011;1068;52.460;13.528;2023-08-17T05:11:35;5.63;;;2.50;;
2123;SDS011;1068;52.460;13.528;2023-08-17T05:14:02;2.67;;;2.37;;
2123;SDS011;1068;52.460;13.528;2023-08-17T05:16:28;3.10;;;2.20;;
2123;SDS011;1068;52.460;13.528;2023-08-17T05:18:55;2.87;;;2.10;;
2123;SDS011;1068;52.460;13.528;2023-08-17T05:21:24;3.20;;;2.70;;
2123;SDS011;1068;52.460;13.528;2023-08-17T05:23:52;2.10;;;1.90;;
2123;SDS011;1068;52.460;13.528;2023-08-17T05:26:19;3.80;;;2.10;;
2123;SDS011;1068;52.460;13.528;2023-08-17T05:28:46;2.57;;;2.37;;
2123;SDS011;1068;52.460;13.528;2023-08-17T05:31:13;2.83;;;2.63;;
2123;SDS011;1068;52.460;13.528;2023-08-17T05:33:40;2.67;;;2.20;;
2123;SDS011;1068;52.460;13.528;2023-08-17T05:36:07;3.97;;;2.30;;
2123;SDS011;1068;52.460;13.528;2023-08-17T05:38:34;2.23;;;2.03;;
2123;SDS011;1068;52.460;13.528;2023-08-17T05:41:02;5.17;;;2.40;;
2123;SDS011;1068;52.460;13.528;2023-08-17T05:43:29;2.53;;;2.10;;
2123;SDS011;1068;52.460;13.528;2023-08-17T05:45:56;2.77;;;2.57;;
2123;SDS011;1068;52.460;13.528;2023-08-17T05:48:24;2.57;;;2.37;;
2123;SDS011;1068;52.460;13.528;2023-08-17T05:50:51;3.00;;;2.23;;
2123;SDS011;1068;52.460;13.528;2023-08-17T05:53:18;2.97;;;2.30;;
2123;SDS011;1068;52.460;13.528;2023-08-17T05:55:45;2.80;;;1.77;;
2123;SDS011;1068;52.460;13.528;2023-08-17T05:58:13;3.53;;;2.00;;
2123;SDS011;1068;52.460;13.528;2023-08-17T06:00:40;3.13;;;2.70;;
2123;SDS011;1068;52.460;13.528;2023-08-17T06:03:07;4.00;;;1.87;;
2123;SDS011;1068;52.460;13.528;2023-08-17T06:05:34;3.87;;;2.10;;
2123;SDS011;1068;52.460;13.528;2023-08-17T06:08:01;2.10;;;2.00;;
2123;SDS011;1068;52.460;13.528;2023-08-17T06:10:29;4.30;;;2.33;;
2123;SDS011;1068;52.460;13.528;2023-08-17T06:12:56;4.47;;;3.00;;
2123;SDS011;1068;52.460;13.528;2023-08-17T06:15:24;2.80;;;1.93;;
2123;SDS011;1068;52.460;13.528;2023-08-17T06:17:51;3.33;;;2.20;;
2123;SDS011;1068;52.460;13.528;2023-08-17T06:20:18;2.10;;;2.00;;
2123;SDS011;1068;52.460;13.528;2023-08-17T06:22:46;3.77;;;2.30;;
2123;SDS011;1068;52.460;13.528;2023-08-17T06:25:14;4.40;;;2.10;;
2123;SDS011;1068;52.460;13.528;2023-08-17T06:27:41;5.60;;;2.57;;
2123;SDS011;1068;52.460;13.528;2023-08-17T06:30:09;3.40;;;2.47;;
2123;SDS011;1068;52.460;13.528;2023-08-17T06:32:39;3.10;;;2.33;;
2123;SDS011;1068;52.460;13.528;2023-08-17T06:35:07;3.70;;;3.07;;
2123;SDS011;1068;52.460;13.528;2023-08-17T06:37:34;2.37;;;1.93;;
2123;SDS011;1068;52.460;13.528;2023-08-17T06:40:01;2.40;;;2.20;;
2123;SDS011;1068;52.460;13.528;2023-08-17T06:42:28;4.07;;;2.70;;
2123;SDS011;1068;52.460;13.528;2023-08-17T06:44:55;2.20;;;1.93;;
2123;SDS011;1068;52.460;13.528;2023-08-17T06:47:22;2.67;;;2.20;;
2123;SDS011;1068;52.460;13.528;2023-08-17T06:49:50;2.67;;;2.37;;
2123;SDS011;1068;52.460;13.528;2023-08-17T06:52:17;2.93;;;2.40;;
2123;SDS011;1068;52.460;13.528;2023-08-17T06:54:44;4.53;;;2.47;;
2123;SDS011;1068;52.460;13.528;2023-08-17T06:57:11;3.30;;;1.80;;
2123;SDS011;1068;52.460;13.528;2023-08-17T06:59:37;4.47;;;2.20;;
2123;SDS011;1068;52.460;13.528;2023-08-17T07:02:05;3.00;;;2.23;;
2123;SDS011;1068;52.460;13.528;2023-08-17T07:04:32;2.80;;;2.60;;
2123;SDS011;1068;52.460;13.528;2023-08-17T07:07:00;4.23;;;2.10;;
2123;SDS011;1068;52.460;13.528;2023-08-17T07:09:27;2.40;;;2.20;;
2123;SDS011;1068;52.460;13.528;2023-08-17T07:11:54;2.87;;;2.63;;
2123;SDS011;1068;52.460;13.528;2023-08-17T07:14:21;2.93;;;2.43;;
2123;SDS011;1068;52.460;13.528;2023-08-17T07:16:48;2.50;;;2.30;;
2123;SDS011;1068;52.460;13.528;2023-08-17T07:19:15;2.40;;;2.20;;
2123;SDS011;1068;52.460;13.528;2023-08-17T07:21:42;2.50;;;2.03;;
2123;SDS011;1068;52.460;13.528;2023-08-17T07:24:13;4.03;;;2.27;;
2123;SDS011;1068;52.460;13.528;2023-08-17T07:26:41;3.00;;;2.33;;
2123;SDS011;1068;52.460;13.528;2023-08-17T07:29:08;2.03;;;1.93;;
2123;SDS011;1068;52.460;13.528;2023-08-17T07:31:36;2.57;;;2.10;;
2123;SDS011;1068;52.460;13.528;2023-08-17T07:34:03;1.90;;;1.80;;
2123;SDS011;1068;52.460;13.528;2023-08-17T07:36:30;4.80;;;2.57;;
2123;SDS011;1068;52.460;13.528;2023-08-17T07:38:57;2.50;;;2.30;;
2123;SDS011;1068;52.460;13.528;2023-08-17T07:41:25;2.30;;;2.20;;
2123;SDS011;1068;52.460;13.528;2023-08-17T07:43:52;2.67;;;2.47;;
2123;SDS011;1068;52.460;13.528;2023-08-17T07:46:19;4.30;;;2.43;;
2123;SDS011;1068;52.460;13.528;2023-08-17T07:48:46;2.33;;;2.13;;
2123;SDS011;1068;52.460;13.528;2023-08-17T07:51:13;4.70;;;2.77;;
2123;SDS011;1068;52.460;13.528;2023-08-17T07:53:41;4.33;;;3.30;;
2123;SDS011;1068;52.460;13.528;2023-08-17T07:56:08;2.63;;;2.53;;
2123;SDS011;1068;52.460;13.528;2023-08-17T07:58:38;3.60;;;2.90;;
2123;SDS011;1068;52.460;13.528;2023-08-17T08:01:05;2.23;;;2.13;;
2123;SDS011;1068;52.460;13.528;2023-08-17T08:03:31;3.93;;;2.03;;
2123;SDS011;1068;52.460;13.528;2023-08-17T08:05:58;2.60;;;2.40;;
2123;SDS011;1068;52.460;13.528;2023-08-17T08:08:25;2.17;;;2.07;;
2123;SDS011;1068;52.460;13.528;2023-08-17T08:10:53;3.17;;;2.90;;
2123;SDS011;1068;52.460;13.528;2023-08-17T08:13:20;2.30;;;2.20;;
2123;SDS011;1068;52.460;13.528;2023-08-17T08:15:48;3.10;;;2.23;;
2123;SDS011;1068;52.460;13.528;2023-08-17T08:18:15;3.27;;;2.00;;
2123;SDS011;1068;52.460;13.528;2023-08-17T08:20:43;3.00;;;2.33;;
2123;SDS011;1068;52.460;13.528;2023-08-17T08:23:10;4.03;;;3.23;;
2123;SDS011;1068;52.460;13.528;2023-08-17T08:25:38;3.57;;;2.70;;
2123;SDS011;1068;52.460;13.528;2023-08-17T08:28:06;3.63;;;2.77;;
2123;SDS011;1068;52.460;13.528;2023-08-17T08:30:33;5.37;;;2.53;;
2123;SDS011;1068;52.460;13.528;2023-08-17T08:33:01;3.00;;;2.80;;
2123;SDS011;1068;52.460;13.528;2023-08-17T08:35:29;2.50;;;2.30;;
2123;SDS011;1068;52.460;13.528;2023-08-17T08:37:55;2.73;;;2.53;;
2123;SDS011;1068;52.460;13.528;2023-08-17T08:40:27;2.77;;;2.53;;
2123;SDS011;1068;52.460;13.528;2023-08-17T08:42:55;7.73;;;3.00;;
2123;SDS011;1068;52.460;13.528;2023-08-17T08:45:22;3.40;;;2.60;;
2123;SDS011;1068;52.460;13.528;2023-08-17T08:47:50;3.37;;;3.13;;
2123;SDS011;1068;52.460;13.528;2023-08-17T08:50:19;3.33;;;2.70;;
2123;SDS011;1068;52.460;13.528;2023-08-17T08:52:49;2.70;;;2.50;;
2123;SDS011;1068;52.460;13.528;2023-08-17T08:55:17;3.27;;;2.97;;
2123;SDS011;1068;52.460;13.528;2023-08-17T08:57:45;3.10;;;2.53;;
2123;SDS011;1068;52.460;13.528;2023-08-17T09:00:14;5.30;;;2.80;;
2123;SDS011;1068;52.460;13.528;2023-08-17T09:02:41;3.20;;;3.00;;
2123;SDS011;1068;52.460;13.528;2023-08-17T09:05:09;3.50;;;3.20;;
2123;SDS011;1068;52.460;13.528;2023-08-17T09:07:38;2.93;;;2.50;;
2123;SDS011;1068;52.460;13.528;2023-08-17T09:10:05;3.30;;;3.10;;
2123;SDS011;1068;52.460;13.528;2023-08-17T09:12:32;5.27;;;3.03;;
2123;SDS011;1068;52.460;13.528;2023-08-17T09:14:59;2.70;;;2.60;;
2123;SDS011;1068;52.460;13.528;2023-08-17T09:17:27;4.13;;;3.20;;
2123;SDS011;1068;52.460;13.528;2023-08-17T09:19:54;2.53;;;2.33;;
2123;SDS011;1068;52.460;13.528;2023-08-17T09:22:24;4.17;;;2.67;;
2123;SDS011;1068;52.460;13.528;2023-08-17T09:24:52;3.37;;;3.17;;
2123;SDS011;1068;52.460;13.528;2023-08-17T09:27:20;2.93;;;2.63;;
2123;SDS011;1068;52.460;13.528;2023-08-17T09:29:47;3.17;;;2.97;;
2123;SDS011;1068;52.460;13.528;2023-08-17T09:32:15;3.20;;;3.00;;
2123;SDS011;1068;52.460;13.528;2023-08-17T09:34:43;3.07;;;2.77;;
2123;SDS011;1068;52.460;13.528;2023-08-17T09:37:11;3.37;;;3.17;;
2123;SDS011;1068;52.460;13.528;2023-08-17T09:39:39;3.40;;;3.10;;
2123;SDS011;1068;52.460;13.528;2023-08-17T09:42:07;6.03;;;3.40;;
2123;SDS011;1068;52.460;13.528;2023-08-17T09:44:34;3.47;;;3.17;;
2123;SDS011;1068;52.460;13.528;2023-08-17T09:47:01;2.90;;;2.70;;
2123;SDS011;1068;52.460;13.528;2023-08-17T09:49:30;3.27;;;3.07;;
2123;SDS011;1068;52.460;13.528;2023-08-17T09:51:58;3.73;;;3.43;;
2123;SDS011;1068;52.460;13.528;2023-08-17T09:54:25;3.77;;;3.47;;
2123;SDS011;1068;52.460;13.528;2023-08-17T09:56:52;3.97;;;2.80;;
2123;SDS011;1068;52.460;13.528;2023-08-17T09:59:21;3.37;;;3.13;;
2123;SDS011;1068;52.460;13.528;2023-08-17T10:01:49;3.53;;;3.23;;
2123;SDS011;1068;52.460;13.528;2023-08-17T10:04:17;4.60;;;3.93;;
2123;SDS011;1068;52.460;13.528;2023-08-17T10:06:46;3.17;;;2.97;;
2123;SDS011;1068;52.460;13.528;2023-08-17T10:09:14;3.60;;;3.40;;
2123;SDS011;1068;52.460;13.528;2023-08-17T10:11:44;4.00;;;3.57;;
2123;SDS011;1068;52.460;13.528;2023-08-17T10:14:13;5.00;;;4.07;;
2123;SDS011;1068;52.460;13.528;2023-08-17T10:16:44;3.70;;;3.40;;
2123;SDS011;1068;52.460;13.528;2023-08-17T10:19:13;3.70;;;3.50;;
2123;SDS011;1068;52.460;13.528;2023-08-17T10:21:43;3.53;;;3.23;;
2123;SDS011;1068;52.460;13.528;2023-08-17T10:24:13;5.47;;;4.10;;
2123;SDS011;1068;52.460;13.528;2023-08-17T10:26:40;4.90;;;3.87;;
2123;SDS011;1068;52.460;13.528;2023-08-17T10:29:07;3.97;;;3.77;;
2123;SDS011;1068;52.460;13.528;2023-08-17T10:31:34;3.77;;;3.20;;
2123;SDS011;1068;52.460;13.528;2023-08-17T10:34:03;4.07;;;3.67;;
2123;SDS011;1068;52.460;13.528;2023-08-17T10:36:30;4.13;;;3.83;;
2123;SDS011;1068;52.460;13.528;2023-08-17T10:41:45;4.20;;;3.90;;
2123;SDS011;1068;52.460;13.528;2023-08-17T10:44:13;4.07;;;3.77;;
2123;SDS011;1068;52.460;13.528;2023-08-17T10:46:40;3.93;;;3.63;;
2123;SDS011;1068;52.460;13.528;2023-08-17T10:49:23;3.83;;;3.53;;
2123;SDS011;1068;52.460;13.528;2023-08-17T10:51:59;4.40;;;4.10;;
2123;SDS011;1068;52.460;13.528;2023-08-17T10:54:35;4.70;;;4.30;;
2123;SDS011;1068;52.460;13.528;2023-08-17T11:00:04;3.83;;;3.60;;
2123;SDS011;1068;52.460;13.528;2023-08-17T11:02:32;6.10;;;3.70;;
2123;SDS011;1068;52.460;13.528;2023-08-17T11:05:01;3.80;;;3.50;;
2123;SDS011;1068;52.460;13.528;2023-08-17T11:07:37;4.30;;;4.00;;
2123;SDS011;1068;52.460;13.528;2023-08-17T11:10:10;4.63;;;4.20;;
2123;SDS011;1068;52.460;13.528;2023-08-17T11:12:37;3.90;;;3.70;;
2123;SDS011;1068;52.460;13.528;2023-08-17T11:15:04;4.83;;;4.50;;
2123;SDS011;1068;52.460;13.528;2023-08-17T11:17:31;4.03;;;3.80;;
2123;SDS011;1068;52.460;13.528;2023-08-17T11:19:58;4.07;;;3.70;;
2123;SDS011;1068;52.460;13.528;2023-08-17T11:22:26;4.13;;;3.93;;
2123;SDS011;1068;52.460;13.528;2023-08-17T11:24:53;5.47;;;4.63;;
2123;SDS011;1068;52.460;13.528;2023-08-17T11:27:20;4.70;;;4.30;;
2123;SDS011;1068;52.460;13.528;2023-08-17T11:29:48;5.03;;;4.47;;
2123;SDS011;1068;52.460;13.528;2023-08-17T11:32:15;4.60;;;4.30;;
2123;SDS011;1068;52.460;13.528;2023-08-17T11:34:42;4.03;;;3.83;;
2123;SDS011;1068;52.460;13.528;2023-08-17T11:37:10;4.47;;;4.23;;
2123;SDS011;1068;52.460;13.528;2023-08-17T11:39:39;4.90;;;4.50;;
2123;SDS011;1068;52.460;13.528;2023-08-17T11:42:06;4.90;;;4.50;;
2123;SDS011;1068;52.460;13.528;2023-08-17T11:44:33;4.53;;;4.23;;
2123;SDS011;1068;52.460;13.528;2023-08-17T11:47:00;4.40;;;4.10;;
2123;SDS011;1068;52.460;13.528;2023-08-17T11:49:27;5.00;;;4.60;;
2123;SDS011;1068;52.460;13.528;2023-08-17T11:51:56;4.87;;;4.63;;
2123;SDS011;1068;52.460;13.528;2023-08-17T11:54:23;4.97;;;4.67;;
2123;SDS011;1068;52.460;13.528;2023-08-17T11:56:51;4.50;;;4.20;;
2123;SDS011;1068;52.460;13.528;2023-08-17T11:59:18;5.23;;;4.93;;
2123;SDS011;1068;52.460;13.528;2023-08-17T12:01:46;4.73;;;4.33;;
2123;SDS011;1068;52.460;13.528;2023-08-17T12:04:15;5.63;;;5.33;;
2123;SDS011;1068;52.460;13.528;2023-08-17T12:06:42;5.43;;;5.00;;
2123;SDS011;1068;52.460;13.528;2023-08-17T12:09:10;6.27;;;5.07;;
2123;SDS011;1068;52.460;13.528;2023-08-17T12:11:38;5.40;;;5.10;;
2123;SDS011;1068;52.460;13.528;2023-08-17T12:14:10;4.93;;;4.60;;
2123;SDS011;1068;52.460;13.528;2023-08-17T12:16:45;4.83;;;4.53;;
2123;SDS011;1068;52.460;13.528;2023-08-17T12:19:12;5.13;;;4.83;;
2123;SDS011;1068;52.460;13.528;2023-08-17T12:21:40;5.00;;;4.70;;
2123;SDS011;1068;52.460;13.528;2023-08-17T12:24:08;4.23;;;3.97;;
2123;SDS011;1068;52.460;13.528;2023-08-17T12:26:35;4.73;;;4.53;;
2123;SDS011;1068;52.460;13.528;2023-08-17T12:29:04;6.33;;;4.30;;
2123;SDS011;1068;52.460;13.528;2023-08-17T12:31:34;5.20;;;4.90;;
2123;SDS011;1068;52.460;13.528;2023-08-17T12:34:02;4.30;;;4.00;;
2123;SDS011;1068;52.460;13.528;2023-08-17T12:36:29;4.77;;;4.47;;
2123;SDS011;1068;52.460;13.528;2023-08-17T12:38:56;5.60;;;4.50;;
2123;SDS011;1068;52.460;13.528;2023-08-17T12:41:25;6.20;;;4.93;;
2123;SDS011;1068;52.460;13.528;2023-08-17T12:43:51;4.87;;;4.50;;
2123;SDS011;1068;52.460;13.528;2023-08-17T12:46:19;5.50;;;4.60;;
2123;SDS011;1068;52.460;13.528;2023-08-17T12:48:47;4.47;;;4.17;;
2123;SDS011;1068;52.460;13.528;2023-08-17T12:51:14;5.13;;;4.63;;
2123;SDS011;1068;52.460;13.528;2023-08-17T12:53:41;5.40;;;5.00;;
2123;SDS011;1068;52.460;13.528;2023-08-17T12:56:08;4.40;;;4.10;;
2123;SDS011;1068;52.460;13.528;2023-08-17T12:58:35;4.53;;;4.23;;
2123;SDS011;1068;52.460;13.528;2023-08-17T13:01:02;5.10;;;4.70;;
2123;SDS011;1068;52.460;13.528;2023-08-17T13:03:30;5.27;;;4.57;;
2123;SDS011;1068;52.460;13.528;2023-08-17T13:05:58;4.20;;;4.00;;
2123;SDS011;1068;52.460;13.528;2023-08-17T13:08:25;5.00;;;4.70;;
2123;SDS011;1068;52.460;13.528;2023-08-17T13:10:52;5.13;;;4.83;;
2123;SDS011;1068;52.460;13.528;2023-08-17T13:13:19;4.93;;;4.70;;
2123;SDS011;1068;52.460;13.528;2023-08-17T13:15:46;4.43;;;4.13;;
2123;SDS011;1068;52.460;13.528;2023-08-17T13:18:13;4.27;;;3.90;;
2123;SDS011;1068;52.460;13.528;2023-08-17T13:20:40;4.43;;;4.23;;
2123;SDS011;1068;52.460;13.528;2023-08-17T13:23:09;5.47;;;4.57;;
2123;SDS011;1068;52.460;13.528;2023-08-17T13:25:36;4.40;;;4.10;;
2123;SDS011;1068;52.460;13.528;2023-08-17T13:28:04;4.10;;;3.80;;
2123;SDS011;1068;52.460;13.528;2023-08-17T13:30:31;4.23;;;3.90;;
2123;SDS011;1068;52.460;13.528;2023-08-17T13:32:58;4.10;;;3.80;;
2123;SDS011;1068;52.460;13.528;2023-08-17T13:35:25;4.00;;;3.70;;
2123;SDS011;1068;52.460;13.528;2023-08-17T13:37:52;4.40;;;4.10;;
2123;SDS011;1068;52.460;13.528;2023-08-17T13:40:21;4.20;;;3.90;;
2123;SDS011;1068;52.460;13.528;2023-08-17T13:42:48;4.50;;;4.20;;
2123;SDS011;1068;52.460;13.528;2023-08-17T13:45:14;3.67;;;3.47;;
2123;SDS011;1068;52.460;13.528;2023-08-17T13:47:41;4.20;;;3.90;;
2123;SDS011;1068;52.460;13.528;2023-08-17T13:50:08;7.90;;;4.20;;
2123;SDS011;1068;52.460;13.528;2023-08-17T13:52:36;3.77;;;3.57;;
2123;SDS011;1068;52.460;13.528;2023-08-17T13:55:03;3.83;;;3.40;;
2123;SDS011;1068;52.460;13.528;2023-08-17T13:57:31;4.40;;;4.17;;
2123;SDS011;1068;52.460;13.528;2023-08-17T13:59:58;4.00;;;3.60;;
2123;SDS011;1068;52.460;13.528;2023-08-17T14:02:25;3.10;;;2.90;;
2123;SDS011;1068;52.460;13.528;2023-08-17T14:04:52;4.53;;;4.13;;
2123;SDS011;1068;52.460;13.528;2023-08-17T14:07:18;3.50;;;3.30;;
2123;SDS011;1068;52.460;13.528;2023-08-17T14:09:45;4.00;;;3.70;;
2123;SDS011;1068;52.460;13.528;2023-08-17T14:12:12;4.10;;;3.80;;
2123;SDS011;1068;52.460;13.528;2023-08-17T14:14:40;4.00;;;3.60;;
2123;SDS011;1068;52.460;13.528;2023-08-17T14:17:07;3.40;;;3.20;;
2123;SDS011;1068;52.460;13.528;2023-08-17T14:19:34;4.40;;;3.93;;
2123;SDS011;1068;52.460;13.528;2023-08-17T14:22:01;3.87;;;3.67;;
2123;SDS011;1068;52.460;13.528;2023-08-17T14:24:28;4.00;;;3.70;;
2123;SDS011;1068;52.460;13.528;2023-08-17T14:26:55;4.07;;;3.70;;
2123;SDS011;1068;52.460;13.528;2023-08-17T14:29:23;3.13;;;2.97;;
2123;SDS011;1068;52.460;13.528;2023-08-17T14:31:51;3.63;;;3.43;;
2123;SDS011;1068;52.460;13.528;2023-08-17T14:34:18;3.73;;;3.47;;
2123;SDS011;1068;52.460;13.528;2023-08-17T14:36:46;4.53;;;3.53;;
2123;SDS011;1068;52.460;13.528;2023-08-17T14:39:13;3.73;;;3.43;;
2123;SDS011;1068;52.460;13.528;2023-08-17T14:41:40;3.60;;;3.30;;
2123;SDS011;1068;52.460;13.528;2023-08-17T14:44:07;3.43;;;3.23;;
2123;SDS011;1068;52.460;13.528;2023-08-17T14:46:33;3.83;;;3.60;;
2123;SDS011;1068;52.460;13.528;2023-08-17T14:49:02;3.53;;;3.33;;
2123;SDS011;1068;52.460;13.528;2023-08-17T14:51:29;4.40;;;4.07;;
2123;SDS011;1068;52.460;13.528;2023-08-17T14:53:56;4.50;;;4.10;;
2123;SDS011;1068;52.460;13.528;2023-08-17T14:56:23;3.40;;;3.20;;
2123;SDS011;1068;52.460;13.528;2023-08-17T14:58:49;4.00;;;3.80;;
2123;SDS011;1068;52.460;13.528;2023-08-17T15:01:16;3.77;;;3.47;;
2123;SDS011;1068;52.460;13.528;2023-08-17T15:03:43;3.67;;;3.30;;
2123;SDS011;1068;52.460;13.528;2023-08-17T15:06:12;4.07;;;3.70;;
2123;SDS011;1068;52.460;13.528;2023-08-17T15:08:39;3.73;;;3.53;;